createdAt,value
2023-04-16T00:02:13.939Z,11.06
2023-04-16T00:04:46.965Z,11.06
2023-04-16T00:07:21.111Z,11.07
2023-04-16T00:09:53.923Z,11.08
2023-04-16T00:12:26.696Z,11.06
2023-04-16T00:14:59.536Z,11.08
2023-04-16T00:17:33.432Z,11.08
2023-04-16T00:20:08.911Z,11.08
2023-04-16T00:22:43.031Z,11.05
2023-04-16T00:25:15.974Z,11.04
2023-04-16T00:27:48.768Z,11.05
2023-04-16T00:30:21.574Z,11.05
2023-04-16T00:32:54.385Z,11.06
2023-04-16T00:35:27.262Z,11.09
2023-04-16T00:38:01.415Z,11.12
2023-04-16T00:40:34.187Z,11.14
2023-04-16T00:43:07.029Z,11.15
2023-04-16T00:45:39.873Z,11.18
2023-04-16T00:48:12.894Z,11.19
2023-04-16T00:50:45.763Z,11.19
2023-04-16T00:53:20.488Z,11.18
2023-04-16T00:55:53.588Z,11.17
2023-04-16T00:58:26.768Z,11.17
2023-04-16T01:00:59.599Z,11.17
2023-04-16T01:03:39.460Z,11.18
2023-04-16T01:06:13.306Z,11.17
2023-04-16T01:08:47.341Z,11.26
2023-04-16T01:11:20.150Z,11.14
2023-04-16T01:13:53.079Z,11.11
2023-04-16T01:16:26.801Z,11.08
2023-04-16T01:18:59.566Z,11.18
2023-04-16T01:21:33.781Z,11.06
2023-04-16T01:24:06.933Z,11.02
2023-04-16T01:26:39.750Z,11.01
2023-04-16T01:29:12.527Z,10.99
2023-04-16T01:31:46.659Z,10.98
2023-04-16T01:34:27.179Z,10.97
2023-04-16T01:37:01.448Z,10.98
2023-04-16T01:39:34.266Z,10.99
2023-04-16T01:42:07.594Z,11.01
2023-04-16T01:44:40.502Z,11.00
2023-04-16T01:47:14.018Z,11.01
2023-04-16T01:49:48.336Z,11.00
2023-04-16T01:52:22.562Z,10.99
2023-04-16T01:54:55.428Z,10.98
2023-04-16T01:57:53.384Z,10.98
2023-04-16T02:00:29.708Z,10.98
2023-04-16T02:03:02.846Z,10.96
2023-04-16T02:05:35.776Z,10.92
2023-04-16T02:08:10.029Z,10.89
2023-04-16T02:10:42.911Z,10.88
2023-04-16T02:13:16.231Z,10.83
2023-04-16T02:15:52.029Z,10.79
2023-04-16T02:18:33.157Z,10.77
2023-04-16T02:21:07.786Z,10.77
2023-04-16T02:23:41.980Z,10.76
2023-04-16T02:26:15.394Z,10.78
2023-04-16T02:28:48.997Z,10.89
2023-04-16T02:31:22.809Z,10.77
2023-04-16T02:33:55.806Z,10.76
2023-04-16T02:36:28.604Z,10.75
2023-04-16T02:39:03.871Z,10.75
2023-04-16T02:41:36.813Z,10.75
2023-04-16T02:44:09.596Z,10.75
2023-04-16T02:46:42.417Z,10.76
2023-04-16T02:49:15.438Z,10.77
2023-04-16T02:51:48.225Z,10.77
2023-04-16T02:54:22.426Z,10.77
2023-04-16T02:56:55.264Z,10.78
2023-04-16T02:59:28.499Z,10.82
2023-04-16T03:02:01.435Z,10.82
2023-04-16T03:04:34.394Z,10.82
2023-04-16T03:07:08.709Z,10.82
2023-04-16T03:09:42.836Z,10.81
2023-04-16T03:12:15.714Z,10.80
2023-04-16T03:14:48.540Z,10.81
2023-04-16T03:17:21.419Z,10.79
2023-04-16T03:19:54.273Z,10.79
2023-04-16T03:22:27.114Z,10.76
2023-04-16T03:25:01.296Z,10.75
2023-04-16T03:27:34.359Z,10.73
2023-04-16T03:30:08.874Z,10.70
2023-04-16T03:32:42.634Z,10.69
2023-04-16T03:35:16.500Z,10.69
2023-04-16T03:37:50.171Z,10.70
2023-04-16T03:40:24.632Z,10.70
2023-04-16T03:42:58.619Z,10.71
2023-04-16T03:45:31.435Z,10.71
2023-04-16T03:48:04.386Z,10.71
2023-04-16T03:50:37.325Z,10.70
2023-04-16T03:53:12.571Z,10.70
2023-04-16T03:55:50.539Z,10.69
2023-04-16T03:58:23.732Z,10.69
2023-04-16T04:00:57.584Z,10.67
2023-04-16T04:03:31.175Z,10.70
2023-04-16T04:06:08.278Z,10.67
2023-04-16T04:08:41.177Z,10.68
2023-04-16T04:11:16.575Z,10.65
2023-04-16T04:13:49.940Z,10.64
2023-04-16T04:16:22.799Z,10.63
2023-04-16T04:18:56.365Z,10.60
2023-04-16T04:21:31.741Z,10.61
2023-04-16T04:24:04.717Z,10.60
2023-04-16T04:26:40.515Z,10.60
2023-04-16T04:29:14.125Z,10.60
2023-04-16T04:31:47.044Z,10.60
2023-04-16T04:34:20.190Z,10.61
2023-04-16T04:36:53.149Z,10.63
2023-04-16T04:39:26.306Z,10.65
2023-04-16T04:42:03.162Z,10.70
2023-04-16T04:44:35.997Z,10.76
2023-04-16T04:47:08.813Z,10.82
2023-04-16T04:49:41.690Z,10.86
2023-04-16T04:52:15.162Z,10.86
2023-04-16T04:54:48.570Z,10.86
2023-04-16T04:57:22.749Z,10.88
2023-04-16T04:59:59.203Z,10.89
2023-04-16T05:02:34.003Z,10.92
2023-04-16T05:05:07.543Z,10.91
2023-04-16T05:07:40.506Z,10.89
2023-04-16T05:10:13.389Z,10.90
2023-04-16T05:12:49.259Z,10.90
2023-04-16T05:15:22.239Z,10.90
2023-04-16T05:17:56.166Z,10.90
2023-04-16T05:20:29.111Z,10.88
2023-04-16T05:23:01.953Z,10.91
2023-04-16T05:25:34.918Z,10.93
2023-04-16T05:28:09.087Z,10.94
2023-04-16T05:30:42.011Z,10.96
2023-04-16T05:33:14.940Z,11.02
2023-04-16T05:35:47.761Z,11.08
2023-04-16T05:38:20.593Z,11.16
2023-04-16T05:40:53.400Z,11.23
2023-04-16T05:43:27.597Z,11.30
2023-04-16T05:46:00.497Z,11.35
2023-04-16T05:48:33.304Z,11.40
2023-04-16T05:51:06.485Z,11.45
2023-04-16T05:53:39.309Z,11.49
2023-04-16T05:56:12.141Z,11.47
2023-04-16T05:59:11.816Z,11.53
2023-04-16T06:01:53.266Z,11.53
2023-04-16T06:04:33.376Z,11.52
2023-04-16T06:07:06.260Z,11.56
2023-04-16T06:09:39.143Z,11.63
2023-04-16T06:12:22.638Z,11.69
2023-04-16T06:14:56.916Z,11.71
2023-04-16T06:17:29.740Z,11.68
2023-04-16T06:20:02.560Z,11.70
2023-04-16T06:22:35.909Z,11.69
2023-04-16T06:25:17.668Z,11.67
2023-04-16T06:27:51.116Z,11.70
2023-04-16T06:30:25.285Z,11.73
2023-04-16T06:32:58.253Z,11.75
2023-04-16T06:35:31.111Z,11.75
2023-04-16T06:38:03.998Z,11.77
2023-04-16T06:40:37.543Z,11.79
2023-04-16T06:43:10.482Z,11.74
2023-04-16T06:45:44.708Z,11.72
2023-04-16T06:48:17.637Z,11.72
2023-04-16T06:50:50.505Z,11.72
2023-04-16T06:53:23.668Z,11.72
2023-04-16T06:55:56.549Z,11.67
2023-04-16T06:58:29.562Z,11.64
2023-04-16T07:01:04.331Z,11.58
2023-04-16T07:03:37.573Z,11.53
2023-04-16T07:06:10.776Z,11.50
2023-04-16T07:08:43.620Z,11.56
2023-04-16T07:11:16.581Z,11.62
2023-04-16T07:13:51.179Z,11.67
2023-04-16T07:16:26.845Z,11.74
2023-04-16T07:18:59.828Z,11.84
2023-04-16T07:21:32.887Z,11.90
2023-04-16T07:24:06.070Z,11.98
2023-04-16T07:26:38.962Z,12.02
2023-04-16T07:29:12.060Z,12.04
2023-04-16T07:31:46.554Z,12.08
2023-04-16T07:34:19.419Z,12.14
2023-04-16T07:36:52.251Z,12.17
2023-04-16T07:39:25.103Z,12.23
2023-04-16T07:41:57.966Z,12.22
2023-04-16T07:44:31.066Z,12.21
2023-04-16T07:47:05.876Z,12.19
2023-04-16T07:49:39.958Z,12.20
2023-04-16T07:52:13.075Z,12.21
2023-04-16T07:54:45.965Z,12.22
2023-04-16T07:57:18.782Z,12.21
2023-04-16T07:59:51.596Z,12.19
2023-04-16T08:02:36.035Z,12.16
2023-04-16T08:05:15.234Z,12.19
2023-04-16T08:07:53.656Z,12.14
2023-04-16T08:10:32.616Z,12.09
2023-04-16T08:13:05.716Z,12.09
2023-04-16T08:15:38.642Z,12.03
2023-04-16T08:18:19.818Z,11.97
2023-04-16T08:20:55.395Z,11.88
2023-04-16T08:23:30.765Z,11.87
2023-04-16T08:26:12.096Z,11.92
2023-04-16T08:28:55.476Z,11.98
2023-04-16T08:31:33.423Z,12.02
2023-04-16T08:34:11.484Z,11.97
2023-04-16T08:36:46.126Z,11.95
2023-04-16T08:39:19.275Z,11.99
2023-04-16T08:41:55.544Z,12.04
2023-04-16T08:44:35.677Z,12.06
2023-04-16T08:47:12.849Z,12.07
2023-04-16T08:49:58.371Z,12.10
2023-04-16T08:52:51.792Z,12.15
2023-04-16T08:55:33.611Z,12.22
2023-04-16T08:58:11.073Z,12.29
2023-04-16T09:00:46.160Z,12.38
2023-04-16T09:03:21.559Z,12.44
2023-04-16T09:05:59.320Z,12.52
2023-04-16T09:08:33.384Z,12.60
2023-04-16T09:11:20.209Z,12.64
2023-04-16T09:13:54.321Z,12.71
2023-04-16T09:16:34.639Z,12.72
2023-04-16T09:19:07.782Z,12.71
2023-04-16T09:21:43.242Z,12.76
2023-04-16T09:24:19.775Z,12.87
2023-04-16T09:26:55.451Z,13.03
2023-04-16T09:29:36.246Z,13.20
2023-04-16T09:32:10.819Z,13.33
2023-04-16T09:35:07.831Z,13.43
2023-04-16T09:37:42.581Z,13.46
2023-04-16T09:40:30.643Z,13.54
2023-04-16T09:43:16.413Z,13.58
2023-04-16T09:45:53.994Z,13.61
2023-04-16T09:48:32.746Z,13.63
2023-04-16T09:51:09.870Z,13.58
2023-04-16T09:53:51.863Z,13.57
2023-04-16T09:56:30.846Z,13.60
2023-04-16T09:59:06.761Z,13.66
2023-04-16T10:01:46.969Z,13.68
2023-04-16T10:04:20.194Z,13.71
2023-04-16T10:07:08.681Z,13.80
2023-04-16T10:09:46.667Z,13.83
2023-04-16T10:12:23.143Z,13.88
2023-04-16T10:14:57.474Z,13.91
2023-04-16T10:17:31.350Z,13.94
2023-04-16T10:20:04.720Z,13.91
2023-04-16T10:22:46.169Z,13.87
2023-04-16T10:25:21.634Z,13.86
2023-04-16T10:27:54.880Z,13.89
2023-04-16T10:30:31.624Z,13.95
2023-04-16T10:33:06.218Z,14.01
2023-04-16T10:35:41.436Z,14.06
2023-04-16T10:38:24.457Z,14.18
2023-04-16T10:41:03.861Z,14.29
2023-04-16T10:43:41.125Z,14.40
2023-04-16T10:46:32.485Z,14.47
2023-04-16T10:49:14.993Z,14.46
2023-04-16T10:51:55.702Z,14.45
2023-04-16T10:54:30.486Z,14.43
2023-04-16T10:57:08.174Z,14.44
2023-04-16T10:59:43.828Z,14.40
2023-04-16T11:02:19.220Z,14.40
2023-04-16T11:04:53.589Z,14.42
2023-04-16T11:07:34.821Z,14.43
2023-04-16T11:10:08.650Z,14.43
2023-04-16T11:12:44.864Z,14.43
2023-04-16T11:15:19.310Z,14.50
2023-04-16T11:17:53.443Z,14.53
2023-04-16T11:20:27.842Z,14.58
2023-04-16T11:23:00.829Z,14.68
2023-04-16T11:25:34.265Z,14.95
2023-04-16T11:28:08.585Z,15.23
2023-04-16T11:30:41.843Z,15.41
2023-04-16T11:33:14.811Z,15.53
2023-04-16T11:35:58.141Z,15.61
2023-04-16T11:38:36.167Z,15.60
2023-04-16T11:41:09.670Z,15.48
2023-04-16T11:43:44.142Z,15.39
2023-04-16T11:46:27.282Z,15.30
2023-04-16T11:49:00.783Z,15.21
2023-04-16T11:51:38.101Z,15.13
2023-04-16T11:54:20.661Z,15.07
2023-04-16T11:56:54.346Z,14.98
2023-04-16T11:59:28.414Z,15.01
2023-04-16T12:02:01.248Z,14.88
2023-04-16T12:04:34.850Z,14.85
2023-04-16T12:07:08.638Z,14.98
2023-04-16T12:09:43.468Z,14.95
2023-04-16T12:12:31.412Z,15.05
2023-04-16T12:15:08.132Z,15.07
2023-04-16T12:17:40.985Z,15.17
2023-04-16T12:20:15.335Z,15.26
2023-04-16T12:22:49.739Z,15.31
2023-04-16T12:25:26.056Z,15.34
2023-04-16T12:27:59.418Z,15.39
2023-04-16T12:30:33.708Z,15.44
2023-04-16T12:33:17.484Z,15.53
2023-04-16T12:35:50.991Z,15.59
2023-04-16T12:38:25.466Z,15.63
2023-04-16T12:40:58.497Z,15.68
2023-04-16T12:43:31.342Z,15.72
2023-04-16T12:46:05.513Z,15.74
2023-04-16T12:48:38.359Z,15.75
2023-04-16T12:51:11.435Z,15.77
2023-04-16T12:53:44.337Z,15.78
2023-04-16T12:56:17.774Z,15.84
2023-04-16T12:58:51.986Z,15.89
2023-04-16T13:01:26.414Z,15.96
2023-04-16T13:03:59.493Z,16.01
2023-04-16T13:06:33.759Z,16.08
2023-04-16T13:09:06.749Z,16.23
2023-04-16T13:11:39.595Z,16.40
2023-04-16T13:14:12.509Z,16.56
2023-04-16T13:16:46.773Z,16.73
2023-04-16T13:19:19.916Z,16.89
2023-04-16T13:21:52.826Z,17.02
2023-04-16T13:24:25.983Z,17.14
2023-04-16T13:26:59.355Z,17.19
2023-04-16T13:29:32.236Z,17.21
2023-04-16T13:32:07.218Z,17.19
2023-04-16T13:34:40.213Z,17.12
2023-04-16T13:37:13.086Z,17.00
2023-04-16T13:39:46.472Z,16.89
2023-04-16T13:42:19.315Z,16.86
2023-04-16T13:44:54.269Z,16.91
2023-04-16T13:47:28.537Z,16.94
2023-04-16T13:50:01.895Z,17.00
2023-04-16T13:52:34.768Z,17.02
2023-04-16T13:55:09.547Z,16.99
2023-04-16T13:57:42.506Z,16.98
2023-04-16T14:00:16.758Z,16.97
2023-04-16T14:02:51.527Z,16.97
2023-04-16T14:05:26.978Z,17.04
2023-04-16T14:08:00.167Z,17.11
2023-04-16T14:10:33.247Z,17.18
2023-04-16T14:13:06.295Z,17.21
2023-04-16T14:15:39.180Z,17.22
2023-04-16T14:18:13.471Z,17.21
2023-04-16T14:20:46.407Z,17.19
2023-04-16T14:23:19.269Z,17.15
2023-04-16T14:25:52.203Z,17.12
2023-04-16T14:28:25.192Z,17.09
2023-04-16T14:30:57.995Z,17.06
2023-04-16T14:33:32.343Z,16.98
2023-04-16T14:36:05.934Z,16.84
2023-04-16T14:38:39.037Z,16.69
2023-04-16T14:41:12.469Z,16.53
2023-04-16T14:43:48.116Z,16.33
2023-04-16T14:46:20.976Z,16.15
2023-04-16T14:48:55.505Z,16.00
2023-04-16T14:51:28.511Z,15.86
2023-04-16T14:54:02.024Z,15.76
2023-04-16T14:56:34.828Z,15.66
2023-04-16T14:59:07.929Z,15.59
2023-04-16T15:01:43.916Z,15.49
2023-04-16T15:04:18.523Z,15.40
2023-04-16T15:06:51.591Z,15.35
2023-04-16T15:09:24.608Z,15.31
2023-04-16T15:11:58.141Z,15.24
2023-04-16T15:14:33.008Z,15.20
2023-04-16T15:17:10.332Z,15.16
2023-04-16T15:19:44.674Z,15.11
2023-04-16T15:22:20.402Z,15.06
2023-04-16T15:24:54.121Z,15.05
2023-04-16T15:27:30.598Z,15.06
2023-04-16T15:30:03.796Z,15.06
2023-04-16T15:32:36.886Z,15.05
2023-04-16T15:35:11.581Z,15.03
2023-04-16T15:37:44.683Z,15.01
2023-04-16T15:40:19.021Z,15.04
2023-04-16T15:42:52.151Z,15.07
2023-04-16T15:45:25.117Z,15.11
2023-04-16T15:47:58.050Z,15.10
2023-04-16T15:50:32.694Z,15.12
2023-04-16T15:53:05.697Z,15.13
2023-04-16T15:55:38.641Z,15.12
2023-04-16T15:58:11.550Z,15.12
2023-04-16T16:00:46.523Z,15.10
2023-04-16T16:03:20.274Z,15.02
2023-04-16T16:05:58.194Z,14.95
2023-04-16T16:08:35.327Z,14.84
2023-04-16T16:11:08.260Z,14.69
2023-04-16T16:13:41.707Z,14.56
2023-04-16T16:16:17.253Z,14.41
2023-04-16T16:18:52.362Z,14.28
2023-04-16T16:21:28.630Z,14.19
2023-04-16T16:24:01.773Z,14.15
2023-04-16T16:26:34.736Z,14.12
2023-04-16T16:29:07.782Z,14.10
2023-04-16T16:31:43.508Z,14.08
2023-04-16T16:34:21.669Z,14.05
2023-04-16T16:37:00.883Z,14.01
2023-04-16T16:39:35.591Z,13.97
2023-04-16T16:42:10.226Z,13.91
2023-04-16T16:44:46.872Z,13.88
2023-04-16T16:47:19.841Z,13.84
2023-04-16T16:49:54.658Z,13.79
2023-04-16T16:52:28.915Z,13.76
2023-04-16T16:55:01.723Z,13.74
2023-04-16T16:57:34.550Z,13.72
2023-04-16T17:00:14.247Z,13.67
2023-04-16T17:02:48.320Z,13.64
2023-04-16T17:05:21.401Z,13.57
2023-04-16T17:07:55.678Z,13.51
2023-04-16T17:10:28.778Z,13.46
2023-04-16T17:13:02.356Z,13.40
2023-04-16T17:15:37.026Z,13.35
2023-04-16T17:18:10.010Z,13.31
2023-04-16T17:20:42.815Z,13.29
2023-04-16T17:23:17.254Z,13.23
2023-04-16T17:25:50.541Z,13.20
2023-04-16T17:28:25.380Z,13.16
2023-04-16T17:30:58.340Z,13.11
2023-04-16T17:33:35.610Z,13.06
2023-04-16T17:36:08.992Z,13.01
2023-04-16T17:38:44.872Z,12.96
2023-04-16T17:41:17.806Z,12.91
2023-04-16T17:43:54.299Z,12.86
2023-04-16T17:46:30.501Z,12.80
2023-04-16T17:49:03.774Z,12.75
2023-04-16T17:51:36.630Z,12.70
2023-04-16T17:54:11.486Z,12.63
2023-04-16T17:56:45.500Z,12.61
2023-04-16T17:59:19.411Z,12.63
2023-04-16T18:01:52.374Z,12.45
2023-04-16T18:04:25.519Z,12.38
2023-04-16T18:07:02.039Z,12.31
2023-04-16T18:09:57.392Z,12.24
2023-04-16T18:12:32.778Z,12.18
2023-04-16T18:15:07.105Z,12.12
2023-04-16T18:17:40.295Z,12.07
2023-04-16T18:20:16.838Z,12.03
2023-04-16T18:25:56.415Z,11.90
2023-04-16T18:28:29.404Z,11.86
2023-04-16T18:31:06.777Z,11.82
2023-04-16T18:33:55.768Z,11.78
2023-04-16T18:36:31.246Z,11.73
2023-04-16T18:39:04.328Z,11.68
2023-04-16T18:41:40.199Z,11.62
2023-04-16T18:44:15.759Z,11.57
2023-04-16T18:46:51.061Z,11.53
2023-04-16T18:49:29.688Z,11.48
2023-04-16T18:52:05.944Z,11.45
2023-04-16T18:54:39.062Z,11.40
2023-04-16T18:57:37.758Z,11.38
2023-04-16T19:00:15.529Z,11.33
2023-04-16T19:03:09.625Z,11.30
2023-04-16T19:05:56.934Z,11.24
2023-04-16T19:08:30.442Z,11.18
2023-04-16T19:11:06.464Z,11.15
2023-04-16T19:13:44.114Z,11.13
2023-04-16T19:16:17.623Z,11.09
2023-04-16T19:18:53.303Z,11.07
2023-04-16T19:21:26.199Z,11.03
2023-04-16T19:23:59.634Z,10.98
2023-04-16T19:26:32.501Z,10.97
2023-04-16T19:29:06.649Z,10.94
2023-04-16T19:31:41.952Z,10.91
2023-04-16T19:34:15.820Z,10.90
2023-04-16T19:37:01.354Z,10.90
2023-04-16T19:39:41.889Z,10.86
2023-04-16T19:42:27.928Z,10.84
2023-04-16T19:45:11.317Z,10.83
2023-04-16T19:47:48.868Z,10.80
2023-04-16T19:50:46.860Z,10.80
2023-04-16T19:53:26.495Z,10.77
2023-04-16T19:56:34.603Z,10.74
2023-04-16T19:59:15.671Z,10.71
2023-04-16T20:01:51.402Z,10.69
2023-04-16T20:04:25.263Z,10.66
2023-04-16T20:07:06.050Z,10.63
2023-04-16T20:09:39.184Z,10.60
2023-04-16T20:12:13.728Z,10.57
2023-04-16T20:14:48.843Z,10.55
2023-04-16T20:17:37.400Z,10.52
2023-04-16T20:20:15.833Z,10.48
2023-04-16T20:22:50.233Z,10.45
2023-04-16T20:25:30.156Z,10.41
2023-04-16T20:28:08.511Z,10.39
2023-04-16T20:30:51.865Z,10.35
2023-04-16T20:33:26.398Z,10.33
2023-04-16T20:36:01.267Z,10.31
2023-04-16T20:38:35.606Z,10.29
2023-04-16T20:41:20.344Z,10.25
2023-04-16T20:44:09.404Z,10.22
2023-04-16T20:46:49.520Z,10.18
2023-04-16T20:49:24.997Z,10.17
2023-04-16T20:51:57.986Z,10.15
2023-04-16T20:54:31.318Z,10.14
2023-04-16T20:57:05.090Z,10.11
2023-04-16T20:59:38.268Z,10.09
2023-04-16T21:02:11.242Z,10.07
2023-04-16T21:04:45.765Z,10.04
2023-04-16T21:07:18.812Z,10.01
2023-04-16T21:09:53.769Z,10.01
2023-04-16T21:12:30.625Z,9.97
2023-04-16T21:15:03.933Z,9.94
2023-04-16T21:17:36.758Z,9.90
2023-04-16T21:20:13.521Z,9.85
2023-04-16T21:22:46.449Z,9.83
2023-04-16T21:25:19.329Z,9.81
2023-04-16T21:27:52.483Z,9.80
2023-04-16T21:30:25.565Z,9.78
2023-04-16T21:32:58.564Z,9.78
2023-04-16T21:35:33.922Z,9.77
2023-04-16T21:38:06.732Z,9.75
2023-04-16T21:40:39.776Z,9.75
2023-04-16T21:43:12.556Z,9.73
2023-04-16T21:45:45.392Z,9.70
2023-04-16T21:48:18.324Z,9.67
2023-04-16T21:50:58.312Z,9.64
2023-04-16T21:53:32.052Z,9.63
2023-04-16T21:56:04.800Z,9.70
2023-04-16T21:58:37.654Z,9.56
2023-04-16T22:01:11.053Z,9.51
2023-04-16T22:03:44.320Z,9.49
2023-04-16T22:06:18.773Z,9.43
2023-04-16T22:08:51.646Z,9.40
2023-04-16T22:11:24.517Z,9.37
2023-04-16T22:13:57.925Z,9.33
2023-04-16T22:16:31.102Z,9.33
2023-04-16T22:19:04.025Z,9.30
2023-04-16T22:21:38.434Z,9.25
2023-04-16T22:24:11.222Z,9.23
2023-04-16T22:26:44.010Z,9.20
2023-04-16T22:29:16.794Z,9.17
2023-04-16T22:31:49.631Z,9.13
2023-04-16T22:34:22.450Z,9.11
2023-04-16T22:36:56.980Z,9.10
2023-04-16T22:39:29.977Z,9.10
2023-04-16T22:42:02.951Z,9.09
2023-04-16T22:44:37.174Z,9.06
2023-04-16T22:47:09.980Z,9.05
2023-04-16T22:49:42.797Z,8.99
2023-04-16T22:52:17.055Z,8.95
2023-04-16T22:54:49.890Z,8.89
2023-04-16T22:57:24.898Z,8.85
2023-04-16T22:59:57.748Z,8.81
2023-04-16T23:02:30.672Z,8.78
2023-04-16T23:05:04.903Z,8.73
2023-04-16T23:07:39.109Z,8.70
2023-04-16T23:10:12.353Z,8.66
2023-04-16T23:12:45.171Z,8.64
2023-04-16T23:15:18.223Z,8.61
2023-04-16T23:17:51.155Z,8.58
2023-04-16T23:20:24.103Z,8.54
2023-04-16T23:22:58.300Z,8.51
2023-04-16T23:25:31.614Z,8.47
2023-04-16T23:28:04.441Z,8.43
2023-04-16T23:30:37.426Z,8.36
2023-04-16T23:33:10.306Z,8.32
2023-04-16T23:35:43.163Z,8.28
2023-04-16T23:38:17.349Z,8.24
2023-04-16T23:40:50.185Z,8.22
2023-04-16T23:43:23.012Z,8.15
2023-04-16T23:45:55.970Z,8.10
2023-04-16T23:48:28.982Z,8.07
2023-04-16T23:51:01.968Z,8.05
2023-04-16T23:53:36.431Z,8.01
2023-04-16T23:56:11.070Z,7.98
2023-04-16T23:58:44.035Z,7.94
